Estación meteorológica de Montseny - Mas Joan (Vallès Oriental, P.N.del Montseny)

Consulta los datos en tiempo real de la estación meteorológica de Montseny - Mas Joan





Hora UTC 11:15
Temperatura 12.5 ºC
Humedad 94.6 %
Pluja 0.3 mm
Velocidad viento 4.6 km/h
Dirección viento E
Radiación solar 317.9 W/m²

Datos diarios 2026-05-05



Hora UTC (invierno +1h; verano +2h)
Temperatura (ºC) Humedad (%) Velocidad viento (km/h) Precipitación (mm) Radiación solar (W/m²)
Hora UTC Aire Humedad Vel. Dir. Vel. Max Dir. Intent. máx 5 min. Rad. Sol.
00:05 12.0 64.0 9.5 NW 23.9 WNW 0.0 1.7
00:10 12.0 64.5 8.3 NW 21.2 NNW 0.0 1.0
00:15 11.8 65.0 8.7 NW 20.0 NNW 0.0 0.5
00:20 12.0 63.5 9.6 NW 18.8 NW 0.0 1.3
00:25 11.8 64.3 10.8 NNW 23.7 N 0.0 0.7
00:30 11.7 64.9 11.4 NNW 24.7 NNW 0.0 0.4
00:35 11.8 64.6 9.7 NW 19.8 NNW 0.0 0.3
00:40 11.6 65.1 8.6 NW 15.7 N 0.0 0.0
00:45 11.7 64.9 10.9 NW 23.1 N 0.0 0.1
00:50 11.7 65.3 8.8 NW 15.5 NW 0.0 0.0
00:55 11.6 65.8 12.0 NNW 19.9 NW 0.0 0.0
01:00 11.5 66.7 9.2 NW 18.1 NNW 0.0 0.0
01:05 11.3 67.1 6.8 NW 12.0 NNW 0.0 0.0
01:10 11.4 66.6 6.6 WNW 14.5 WNW 0.0 0.0
01:15 11.3 65.9 5.6 NW 10.2 WNW 0.0 0.0
01:20 11.2 68.9 3.3 W 8.1 NNW 0.0 0.0
01:25 10.5 72.2 3.6 WNW 7.7 NW 0.0 0.0
01:30 10.3 74.9 3.7 WNW 5.7 WNW 0.0 0.0
01:35 9.8 77.3 3.8 W 6.2 WNW 0.1 0.0
01:40 9.7 76.1 5.5 WNW 9.7 NW 0.0 0.0
01:45 10.3 71.5 7.0 NW 11.8 WNW 0.0 0.0
01:50 10.4 71.4 6.0 WNW 10.6 NW 0.0 0.0
01:55 10.4 71.5 5.7 WNW 10.0 WNW 0.0 0.0
02:00 10.2 72.9 5.5 WNW 11.5 NW 0.0 0.0
02:05 10.1 74.0 5.8 WNW 15.3 N 0.0 0.0
02:10 9.8 75.4 4.9 WNW 10.1 WNW 0.0 0.0
02:15 9.8 74.2 6.8 WNW 12.9 WNW 0.0 0.0
02:20 9.9 72.7 6.3 WNW 12.4 WNW 0.0 0.0
02:25 10.1 71.5 6.4 WNW 9.9 WNW 0.0 0.0
02:30 9.9 73.1 4.9 WNW 9.2 WNW 0.0 0.0
02:35 9.7 74.8 4.6 W 8.6 NW 0.0 0.0
02:40 9.8 73.5 6.6 WNW 12.1 WNW 0.0 0.0
02:45 10.0 71.4 6.2 WNW 12.2 WNW 0.0 0.0
02:50 9.9 71.3 6.1 NW 10.5 NW 0.0 0.0
02:55 10.4 68.1 4.4 WNW 9.8 NNW 0.0 0.1
03:00 10.7 66.2 2.8 WNW 6.7 NNW 0.0 0.0
03:05 10.6 66.5 3.1 SW 7.1 NNW 0.0 0.0
03:10 10.2 71.1 2.6 SW 4.4 W 0.0 0.0
03:15 9.6 77.2 3.3 SW 5.8 SSW 0.0 0.0
03:20 9.2 79.9 2.8 WSW 4.0 WSW 0.0 0.0
03:25 9.0 80.7 3.3 W 7.3 W 0.0 0.0
03:30 9.1 78.2 2.8 WSW 4.6 W 0.0 0.0
03:35 9.1 76.1 2.4 WSW 4.9 W 0.0 0.0
03:40 9.2 77.3 3.9 W 4.8 W 0.0 0.0
03:45 8.9 77.4 4.2 WSW 4.8 WSW 0.0 0.0
03:50 8.7 79.4 3.6 WSW 4.5 W 0.0 0.0
03:55 8.6 79.8 3.9 WSW 4.6 WSW 0.0 0.0
04:00 8.5 78.3 3.6 WSW 4.8 WSW 0.0 0.0
04:05 8.7 77.3 3.1 WSW 4.0 W 0.0 0.0
04:10 8.7 78.2 3.5 WSW 5.8 WSW 0.0 0.0
04:15 8.7 77.3 3.3 WSW 4.1 WSW 0.0 0.0
04:20 8.7 75.9 2.8 WSW 4.1 WSW 0.0 0.0
04:25 8.7 77.1 3.1 WSW 4.4 WSW 0.0 0.0
04:30 8.5 79.6 3.5 WSW 4.2 WSW 0.0 0.0
04:35 8.4 79.5 3.6 WSW 4.8 WSW 0.0 0.3
04:40 8.5 78.0 3.1 WSW 4.2 W 0.0 2.6
04:45 8.6 76.5 2.5 WSW 3.8 WSW 0.0 4.8
04:50 8.7 76.9 3.8 W 5.4 W 0.0 6.6
04:55 9.0 74.9 3.1 W 5.2 WNW 0.0 9.8
05:00 9.2 74.6 3.7 W 6.0 W 0.0 12.6
05:05 9.2 73.1 3.4 WSW 4.5 WSW 0.0 15.3
05:10 9.2 73.7 2.3 WSW 4.0 W 0.0 18.1
05:15 9.2 73.1 2.4 SW 3.9 SW 0.0 21.5
05:20 9.4 76.4 2.5 WSW 5.0 SSW 0.0 76.5
05:25 9.8 77.1 2.0 WSW 2.8 WSW 0.0 101.4
05:30 10.6 75.4 1.8 W 3.1 WNW 0.0 116.4
05:35 11.2 73.8 3.2 NW 4.4 WNW 0.0 131.9
05:40 11.8 66.5 4.4 NNW 7.6 N 0.0 149.0
05:45 12.3 63.1 3.5 NW 6.9 NW 0.0 166.2
05:50 12.6 61.2 3.3 NW 5.5 NW 0.0 182.4
05:55 12.7 60.2 3.9 NNW 6.1 NNW 0.0 199.2
06:00 12.9 58.3 4.0 NNW 7.1 N 0.0 216.5
06:05 13.0 57.1 3.4 NNW 6.0 N 0.1 233.6
06:10 13.0 56.3 2.2 NW 4.4 WNW 0.0 251.5
06:15 13.6 56.1 1.6 NNW 4.0 NE 0.0 270.0
06:20 14.2 57.6 1.9 NE 4.2 NNE 0.0 287.6
06:25 14.6 57.6 2.6 ENE 5.5 NNE 0.0 306.3
06:30 14.4 61.6 2.2 ESE 4.4 S 0.0 325.4
06:35 14.6 59.4 2.6 E 4.7 SE 0.0 344.3
06:40 14.7 59.8 2.2 E 4.2 NE 0.0 362.9
06:45 14.8 59.6 2.5 ENE 5.7 ENE 0.0 380.8
06:50 14.9 59.4 2.8 NNE 6.4 NNE 0.0 399.0
06:55 14.7 59.0 3.1 NNE 7.5 N 0.0 417.1
07:00 14.7 56.2 3.5 N 7.9 N 0.0 434.5
07:05 14.9 56.6 5.2 N 11.2 N 0.0 453.2
07:10 14.8 57.2 3.8 NE 8.2 ENE 0.0 473.3
07:15 15.3 59.3 2.6 NE 8.1 NE 0.0 493.6
07:20 15.4 60.0 2.6 NE 5.4 NNE 0.0 514.2
07:25 15.1 66.9 4.0 ESE 8.2 ESE 0.0 520.1
07:30 14.2 74.6 3.8 SSE 8.3 SE 0.0 369.1
07:35 14.0 77.6 3.4 ESE 6.2 E 0.0 572.2
07:40 14.2 79.0 4.1 SE 8.0 SE 0.0 594.4
07:45 14.1 79.0 4.9 SSE 16.0 SSE 0.0 596.3
07:50 13.7 80.2 6.0 SSE 15.0 SSE 0.0 613.4
07:55 14.2 78.6 7.0 SSE 15.9 SSE 0.0 632.7
08:00 13.8 78.1 8.6 SSE 14.9 SSE 0.0 650.1
08:05 13.9 80.4 5.7 SSE 12.2 SE 0.0 654.9
08:10 13.9 78.8 4.1 SSE 10.0 ENE 0.0 679.6
08:15 14.0 79.0 4.1 ESE 7.6 NE 0.0 688.7
08:20 14.2 77.3 4.1 E 7.5 E 0.0 703.3
08:25 14.2 77.6 4.0 ESE 8.2 S 0.0 715.9
08:30 14.7 74.5 4.5 SSE 8.0 SSW 0.0 733.8
08:35 14.7 74.4 3.3 ESE 6.8 NE 0.0 751.7
08:40 15.3 71.8 4.1 ESE 9.1 SE 0.0 778.5
08:45 15.5 73.0 3.6 SE 7.1 SE 0.0 820.0
08:50 15.6 71.9 4.7 SE 9.5 ESE 0.0 779.2
08:55 15.2 73.1 4.3 SE 8.8 SE 0.0 310.4
09:00 14.7 76.6 3.3 SSE 5.7 ENE 0.0 223.7
09:05 14.3 77.4 5.8 SSE 14.1 SSE 0.0 144.7
09:10 13.2 79.8 9.6 SSE 17.2 SSE 0.0 104.1
09:15 12.8 80.5 6.9 S 11.4 S 0.0 87.6
09:20 12.6 81.7 8.8 SSE 15.4 S 0.0 92.0
09:25 12.3 84.3 10.6 S 21.0 SSE 0.0 102.3
09:30 11.9 86.1 10.3 SSE 15.7 S 0.0 95.2
09:35 11.8 88.8 6.4 S 15.1 S 0.0 116.5
09:40 11.8 89.7 3.3 NE 6.4 NNW 0.0 194.4
09:45 12.2 89.6 6.1 N 10.0 NNW 0.0 170.7
09:50 12.1 91.3 5.5 NNW 10.5 N 0.0 208.7
09:55 12.1 89.3 6.4 NNW 10.4 NNW 0.0 269.9
10:00 12.5 86.1 8.3 NW 14.0 NNW 0.0 385.0
10:05 12.9 84.8 7.0 NNW 15.1 NW 0.0 459.7
10:10 13.3 80.4 5.2 NNW 11.6 NNW 0.0 432.6
10:15 13.8 72.8 7.3 N 13.4 N 0.0 815.0
10:20 14.5 70.9 4.3 N 10.2 N 0.0 650.0
10:25 15.2 78.5 3.8 SE 7.3 SSE 0.0 503.5
10:30 14.7 76.0 3.6 SSE 8.3 SSE 0.0 247.1
10:35 14.2 80.0 7.4 SSE 13.8 SSE 0.0 238.9
10:40 13.5 83.8 9.8 S 16.3 S 0.0 217.0
10:45 13.0 86.8 7.5 S 17.5 SSE 0.0 116.2
10:50 12.8 88.7 4.3 SSE 11.6 SE 0.0 67.8
10:55 12.6 90.2 5.0 SSE 9.8 SE 0.1 115.4
11:00 12.5 91.4 3.5 SSE 10.5 ESE 0.0 62.3
11:05 12.3 92.4 3.0 NE 7.1 ENE 0.0 57.7
11:10 12.4 93.8 2.8 E 6.8 ESE 0.0 104.7
11:15 12.5 94.6 4.6 E 9.5 E 0.0 317.9
Máxima 15.6 94.6 12.0 NNW 24.7 NNW 0.1 820.0
Mínima 8.4 56.1
Total 0.3